sensor_id;sensor_type;location;lat;lon;timestamp;P1;durP1;ratioP1;P2;durP2;ratioP2
5414;SDS011;2730;51.512;7.504;2023-02-15T00:01:30;21.27;;;10.40;;
5414;SDS011;2730;51.512;7.504;2023-02-15T00:03:58;24.15;;;10.85;;
5414;SDS011;2730;51.512;7.504;2023-02-15T00:06:25;24.38;;;11.05;;
5414;SDS011;2730;51.512;7.504;2023-02-15T00:08:53;30.70;;;9.82;;
5414;SDS011;2730;51.512;7.504;2023-02-15T00:11:21;24.83;;;11.48;;
5414;SDS011;2730;51.512;7.504;2023-02-15T00:14:02;20.75;;;9.63;;
5414;SDS011;2730;51.512;7.504;2023-02-15T00:16:31;19.75;;;9.93;;
5414;SDS011;2730;51.512;7.504;2023-02-15T00:18:58;22.60;;;11.10;;
5414;SDS011;2730;51.512;7.504;2023-02-15T00:21:26;21.73;;;10.57;;
5414;SDS011;2730;51.512;7.504;2023-02-15T00:23:53;24.80;;;11.07;;
5414;SDS011;2730;51.512;7.504;2023-02-15T00:26:20;24.38;;;11.63;;
5414;SDS011;2730;51.512;7.504;2023-02-15T00:28:47;31.35;;;9.98;;
5414;SDS011;2730;51.512;7.504;2023-02-15T00:31:14;22.08;;;10.40;;
5414;SDS011;2730;51.512;7.504;2023-02-15T00:33:42;20.88;;;9.93;;
5414;SDS011;2730;51.512;7.504;2023-02-15T00:36:09;20.00;;;10.30;;
5414;SDS011;2730;51.512;7.504;2023-02-15T00:38:36;28.10;;;10.82;;
5414;SDS011;2730;51.512;7.504;2023-02-15T00:41:04;25.77;;;12.65;;
5414;SDS011;2730;51.512;7.504;2023-02-15T00:43:32;22.67;;;10.10;;
5414;SDS011;2730;51.512;7.504;2023-02-15T00:46:00;19.67;;;10.65;;
5414;SDS011;2730;51.512;7.504;2023-02-15T00:48:27;24.55;;;11.18;;
5414;SDS011;2730;51.512;7.504;2023-02-15T00:50:56;27.67;;;11.40;;
5414;SDS011;2730;51.512;7.504;2023-02-15T00:53:25;22.02;;;11.20;;
5414;SDS011;2730;51.512;7.504;2023-02-15T00:55:52;26.40;;;10.90;;
5414;SDS011;2730;51.512;7.504;2023-02-15T00:58:19;25.52;;;11.50;;
5414;SDS011;2730;51.512;7.504;2023-02-15T01:00:46;26.35;;;10.68;;
5414;SDS011;2730;51.512;7.504;2023-02-15T01:03:14;25.45;;;11.30;;
5414;SDS011;2730;51.512;7.504;2023-02-15T01:05:42;30.17;;;11.70;;
5414;SDS011;2730;51.512;7.504;2023-02-15T01:08:10;23.52;;;11.75;;
5414;SDS011;2730;51.512;7.504;2023-02-15T01:10:37;24.00;;;10.48;;
5414;SDS011;2730;51.512;7.504;2023-02-15T01:13:03;27.83;;;10.30;;
5414;SDS011;2730;51.512;7.504;2023-02-15T01:15:30;24.52;;;11.27;;
5414;SDS011;2730;51.512;7.504;2023-02-15T01:18:00;28.85;;;11.43;;
5414;SDS011;2730;51.512;7.504;2023-02-15T01:20:27;28.08;;;10.77;;
5414;SDS011;2730;51.512;7.504;2023-02-15T01:22:54;27.08;;;12.10;;
5414;SDS011;2730;51.512;7.504;2023-02-15T01:25:24;30.48;;;12.00;;
5414;SDS011;2730;51.512;7.504;2023-02-15T01:27:51;29.48;;;11.10;;
5414;SDS011;2730;51.512;7.504;2023-02-15T01:30:18;29.70;;;11.70;;
5414;SDS011;2730;51.512;7.504;2023-02-15T01:32:45;25.17;;;11.88;;
5414;SDS011;2730;51.512;7.504;2023-02-15T01:35:12;30.80;;;11.18;;
5414;SDS011;2730;51.512;7.504;2023-02-15T01:37:38;25.90;;;11.40;;
5414;SDS011;2730;51.512;7.504;2023-02-15T01:40:06;32.72;;;13.60;;
5414;SDS011;2730;51.512;7.504;2023-02-15T01:42:36;26.77;;;12.18;;
5414;SDS011;2730;51.512;7.504;2023-02-15T01:45:03;27.40;;;11.32;;
5414;SDS011;2730;51.512;7.504;2023-02-15T01:47:32;29.58;;;13.07;;
5414;SDS011;2730;51.512;7.504;2023-02-15T01:50:03;28.23;;;12.95;;
5414;SDS011;2730;51.512;7.504;2023-02-15T01:52:35;34.85;;;11.63;;
5414;SDS011;2730;51.512;7.504;2023-02-15T01:55:06;26.90;;;11.55;;
5414;SDS011;2730;51.512;7.504;2023-02-15T01:57:35;33.10;;;11.57;;
5414;SDS011;2730;51.512;7.504;2023-02-15T02:00:03;35.20;;;13.70;;
5414;SDS011;2730;51.512;7.504;2023-02-15T02:02:32;29.10;;;13.40;;
5414;SDS011;2730;51.512;7.504;2023-02-15T02:05:00;26.33;;;11.50;;
5414;SDS011;2730;51.512;7.504;2023-02-15T02:07:32;30.25;;;12.23;;
5414;SDS011;2730;51.512;7.504;2023-02-15T02:10:01;24.13;;;10.90;;
5414;SDS011;2730;51.512;7.504;2023-02-15T02:12:29;33.42;;;13.40;;
5414;SDS011;2730;51.512;7.504;2023-02-15T02:14:57;32.00;;;12.45;;
5414;SDS011;2730;51.512;7.504;2023-02-15T02:17:27;25.42;;;12.13;;
5414;SDS011;2730;51.512;7.504;2023-02-15T02:23:24;30.30;;;12.70;;
5414;SDS011;2730;51.512;7.504;2023-02-15T02:29:05;25.25;;;11.82;;
5414;SDS011;2730;51.512;7.504;2023-02-15T02:34:59;33.17;;;12.60;;
5414;SDS011;2730;51.512;7.504;2023-02-15T02:37:39;32.92;;;11.93;;
5414;SDS011;2730;51.512;7.504;2023-02-15T02:40:13;29.80;;;12.70;;
5414;SDS011;2730;51.512;7.504;2023-02-15T02:42:47;31.63;;;12.43;;
5414;SDS011;2730;51.512;7.504;2023-02-15T02:45:21;30.00;;;12.73;;
5414;SDS011;2730;51.512;7.504;2023-02-15T02:47:53;29.75;;;12.00;;
5414;SDS011;2730;51.512;7.504;2023-02-15T02:50:26;32.80;;;12.45;;
5414;SDS011;2730;51.512;7.504;2023-02-15T02:52:54;29.00;;;12.68;;
5414;SDS011;2730;51.512;7.504;2023-02-15T02:55:23;33.50;;;12.60;;
5414;SDS011;2730;51.512;7.504;2023-02-15T02:57:55;34.03;;;13.50;;
5414;SDS011;2730;51.512;7.504;2023-02-15T03:00:26;25.70;;;11.70;;
5414;SDS011;2730;51.512;7.504;2023-02-15T03:02:58;36.80;;;13.70;;
5414;SDS011;2730;51.512;7.504;2023-02-15T03:05:39;31.40;;;12.55;;
5414;SDS011;2730;51.512;7.504;2023-02-15T03:08:09;41.47;;;14.25;;
5414;SDS011;2730;51.512;7.504;2023-02-15T03:10:38;25.92;;;12.10;;
5414;SDS011;2730;51.512;7.504;2023-02-15T03:13:06;30.65;;;12.75;;
5414;SDS011;2730;51.512;7.504;2023-02-15T03:15:35;30.45;;;13.27;;
5414;SDS011;2730;51.512;7.504;2023-02-15T03:18:37;35.72;;;13.45;;
5414;SDS011;2730;51.512;7.504;2023-02-15T03:21:10;39.03;;;13.85;;
5414;SDS011;2730;51.512;7.504;2023-02-15T03:23:48;26.85;;;12.25;;
5414;SDS011;2730;51.512;7.504;2023-02-15T03:26:18;37.88;;;13.65;;
5414;SDS011;2730;51.512;7.504;2023-02-15T03:28:48;30.90;;;12.70;;
5414;SDS011;2730;51.512;7.504;2023-02-15T03:31:17;27.33;;;13.57;;
5414;SDS011;2730;51.512;7.504;2023-02-15T03:33:48;28.05;;;11.77;;
5414;SDS011;2730;51.512;7.504;2023-02-15T03:36:22;34.92;;;12.88;;
5414;SDS011;2730;51.512;7.504;2023-02-15T03:38:56;29.48;;;13.10;;
5414;SDS011;2730;51.512;7.504;2023-02-15T03:41:29;31.67;;;13.82;;
5414;SDS011;2730;51.512;7.504;2023-02-15T03:44:00;31.83;;;13.02;;
5414;SDS011;2730;51.512;7.504;2023-02-15T03:46:33;29.05;;;12.98;;
5414;SDS011;2730;51.512;7.504;2023-02-15T03:49:06;29.35;;;13.45;;
5414;SDS011;2730;51.512;7.504;2023-02-15T03:51:38;31.20;;;13.60;;
5414;SDS011;2730;51.512;7.504;2023-02-15T03:54:09;36.42;;;14.00;;
5414;SDS011;2730;51.512;7.504;2023-02-15T03:57:00;37.10;;;14.07;;
5414;SDS011;2730;51.512;7.504;2023-02-15T03:59:41;37.33;;;13.73;;
5414;SDS011;2730;51.512;7.504;2023-02-15T04:02:26;36.92;;;15.95;;
5414;SDS011;2730;51.512;7.504;2023-02-15T04:04:59;32.67;;;14.27;;
5414;SDS011;2730;51.512;7.504;2023-02-15T04:07:27;33.08;;;13.50;;
5414;SDS011;2730;51.512;7.504;2023-02-15T04:09:54;37.90;;;14.75;;
5414;SDS011;2730;51.512;7.504;2023-02-15T04:12:38;32.55;;;14.23;;
5414;SDS011;2730;51.512;7.504;2023-02-15T04:15:05;34.50;;;14.40;;
5414;SDS011;2730;51.512;7.504;2023-02-15T04:17:51;35.55;;;14.75;;
5414;SDS011;2730;51.512;7.504;2023-02-15T04:20:18;26.63;;;13.93;;
5414;SDS011;2730;51.512;7.504;2023-02-15T04:23:06;34.33;;;13.73;;
5414;SDS011;2730;51.512;7.504;2023-02-15T04:25:50;32.25;;;13.02;;
5414;SDS011;2730;51.512;7.504;2023-02-15T04:28:17;33.90;;;14.65;;
5414;SDS011;2730;51.512;7.504;2023-02-15T04:30:44;28.15;;;13.65;;
5414;SDS011;2730;51.512;7.504;2023-02-15T04:33:12;35.47;;;14.90;;
5414;SDS011;2730;51.512;7.504;2023-02-15T04:35:39;39.08;;;14.63;;
5414;SDS011;2730;51.512;7.504;2023-02-15T04:38:07;28.50;;;13.32;;
5414;SDS011;2730;51.512;7.504;2023-02-15T04:40:35;33.08;;;13.75;;
5414;SDS011;2730;51.512;7.504;2023-02-15T04:43:01;32.53;;;14.05;;
5414;SDS011;2730;51.512;7.504;2023-02-15T04:45:28;33.45;;;14.40;;
5414;SDS011;2730;51.512;7.504;2023-02-15T04:47:55;33.78;;;13.52;;
5414;SDS011;2730;51.512;7.504;2023-02-15T04:50:22;36.20;;;14.73;;
5414;SDS011;2730;51.512;7.504;2023-02-15T04:52:48;40.72;;;15.68;;
5414;SDS011;2730;51.512;7.504;2023-02-15T04:55:17;39.63;;;13.60;;
5414;SDS011;2730;51.512;7.504;2023-02-15T04:57:43;42.97;;;14.82;;
5414;SDS011;2730;51.512;7.504;2023-02-15T05:00:12;36.55;;;14.48;;
5414;SDS011;2730;51.512;7.504;2023-02-15T05:02:39;34.40;;;14.63;;
5414;SDS011;2730;51.512;7.504;2023-02-15T05:05:05;32.78;;;14.60;;
5414;SDS011;2730;51.512;7.504;2023-02-15T05:07:34;41.60;;;15.85;;
5414;SDS011;2730;51.512;7.504;2023-02-15T05:10:01;32.67;;;14.73;;
5414;SDS011;2730;51.512;7.504;2023-02-15T05:12:29;53.25;;;15.60;;
5414;SDS011;2730;51.512;7.504;2023-02-15T05:14:56;39.40;;;14.32;;
5414;SDS011;2730;51.512;7.504;2023-02-15T05:17:22;35.90;;;14.13;;
5414;SDS011;2730;51.512;7.504;2023-02-15T05:19:49;39.75;;;16.33;;
5414;SDS011;2730;51.512;7.504;2023-02-15T05:22:16;36.50;;;14.38;;
5414;SDS011;2730;51.512;7.504;2023-02-15T05:24:42;47.45;;;15.80;;
5414;SDS011;2730;51.512;7.504;2023-02-15T05:27:28;33.47;;;15.13;;
5414;SDS011;2730;51.512;7.504;2023-02-15T05:30:13;35.78;;;14.63;;
5414;SDS011;2730;51.512;7.504;2023-02-15T05:32:40;37.00;;;16.20;;
5414;SDS011;2730;51.512;7.504;2023-02-15T05:35:07;41.03;;;15.65;;
5414;SDS011;2730;51.512;7.504;2023-02-15T05:37:33;48.22;;;18.08;;
5414;SDS011;2730;51.512;7.504;2023-02-15T05:40:00;38.63;;;14.75;;
5414;SDS011;2730;51.512;7.504;2023-02-15T05:42:28;45.80;;;15.45;;
5414;SDS011;2730;51.512;7.504;2023-02-15T05:44:55;36.22;;;17.52;;
5414;SDS011;2730;51.512;7.504;2023-02-15T05:47:22;42.92;;;17.55;;
5414;SDS011;2730;51.512;7.504;2023-02-15T05:49:49;37.97;;;16.80;;
5414;SDS011;2730;51.512;7.504;2023-02-15T05:52:15;37.58;;;15.07;;
5414;SDS011;2730;51.512;7.504;2023-02-15T05:54:42;39.55;;;16.27;;
5414;SDS011;2730;51.512;7.504;2023-02-15T05:57:09;36.03;;;15.90;;
5414;SDS011;2730;51.512;7.504;2023-02-15T05:59:37;34.90;;;16.38;;
5414;SDS011;2730;51.512;7.504;2023-02-15T06:02:04;38.08;;;15.57;;
5414;SDS011;2730;51.512;7.504;2023-02-15T06:04:31;44.55;;;16.83;;
5414;SDS011;2730;51.512;7.504;2023-02-15T06:06:58;38.60;;;16.48;;
5414;SDS011;2730;51.512;7.504;2023-02-15T06:09:25;34.90;;;15.35;;
5414;SDS011;2730;51.512;7.504;2023-02-15T06:11:51;41.70;;;16.98;;
5414;SDS011;2730;51.512;7.504;2023-02-15T06:14:18;39.90;;;16.20;;
5414;SDS011;2730;51.512;7.504;2023-02-15T06:16:46;35.30;;;15.90;;
5414;SDS011;2730;51.512;7.504;2023-02-15T06:19:13;43.72;;;16.50;;
5414;SDS011;2730;51.512;7.504;2023-02-15T06:21:40;37.72;;;15.35;;
5414;SDS011;2730;51.512;7.504;2023-02-15T06:24:07;44.58;;;16.23;;
5414;SDS011;2730;51.512;7.504;2023-02-15T06:26:34;38.15;;;15.10;;
5414;SDS011;2730;51.512;7.504;2023-02-15T06:29:01;38.15;;;14.57;;
5414;SDS011;2730;51.512;7.504;2023-02-15T06:31:28;37.92;;;16.58;;
5414;SDS011;2730;51.512;7.504;2023-02-15T06:33:56;39.67;;;15.77;;
5414;SDS011;2730;51.512;7.504;2023-02-15T06:36:26;38.55;;;16.95;;
5414;SDS011;2730;51.512;7.504;2023-02-15T06:38:52;32.95;;;14.75;;
5414;SDS011;2730;51.512;7.504;2023-02-15T06:41:19;41.13;;;16.30;;
5414;SDS011;2730;51.512;7.504;2023-02-15T06:43:46;47.70;;;16.92;;
5414;SDS011;2730;51.512;7.504;2023-02-15T06:46:13;46.88;;;17.48;;
5414;SDS011;2730;51.512;7.504;2023-02-15T06:48:40;44.20;;;17.85;;
5414;SDS011;2730;51.512;7.504;2023-02-15T06:51:08;48.03;;;17.77;;
5414;SDS011;2730;51.512;7.504;2023-02-15T06:53:35;45.83;;;17.73;;
5414;SDS011;2730;51.512;7.504;2023-02-15T06:56:02;34.08;;;14.65;;
5414;SDS011;2730;51.512;7.504;2023-02-15T06:58:31;38.33;;;16.98;;
5414;SDS011;2730;51.512;7.504;2023-02-15T07:00:58;40.28;;;17.65;;
5414;SDS011;2730;51.512;7.504;2023-02-15T07:03:25;37.28;;;17.02;;
5414;SDS011;2730;51.512;7.504;2023-02-15T07:05:53;48.40;;;18.38;;
5414;SDS011;2730;51.512;7.504;2023-02-15T07:08:22;35.50;;;16.27;;
5414;SDS011;2730;51.512;7.504;2023-02-15T07:10:49;34.28;;;15.90;;
5414;SDS011;2730;51.512;7.504;2023-02-15T07:13:16;40.83;;;17.40;;
5414;SDS011;2730;51.512;7.504;2023-02-15T07:15:43;44.90;;;17.90;;
5414;SDS011;2730;51.512;7.504;2023-02-15T07:18:09;48.38;;;16.95;;
5414;SDS011;2730;51.512;7.504;2023-02-15T07:20:36;41.45;;;17.48;;
5414;SDS011;2730;51.512;7.504;2023-02-15T07:23:05;41.63;;;16.30;;
5414;SDS011;2730;51.512;7.504;2023-02-15T07:25:33;43.00;;;15.70;;
5414;SDS011;2730;51.512;7.504;2023-02-15T07:28:01;40.65;;;16.10;;
5414;SDS011;2730;51.512;7.504;2023-02-15T07:30:29;38.38;;;16.20;;
5414;SDS011;2730;51.512;7.504;2023-02-15T07:32:56;46.70;;;16.65;;
5414;SDS011;2730;51.512;7.504;2023-02-15T07:35:45;41.90;;;15.85;;
5414;SDS011;2730;51.512;7.504;2023-02-15T07:38:13;44.20;;;18.08;;
5414;SDS011;2730;51.512;7.504;2023-02-15T07:40:41;43.88;;;16.23;;
5414;SDS011;2730;51.512;7.504;2023-02-15T07:43:08;38.92;;;16.48;;
5414;SDS011;2730;51.512;7.504;2023-02-15T07:45:35;39.17;;;17.65;;
5414;SDS011;2730;51.512;7.504;2023-02-15T07:48:02;33.58;;;15.52;;
5414;SDS011;2730;51.512;7.504;2023-02-15T07:50:30;38.35;;;16.85;;
5414;SDS011;2730;51.512;7.504;2023-02-15T07:52:57;37.53;;;16.30;;
5414;SDS011;2730;51.512;7.504;2023-02-15T07:55:24;40.80;;;15.93;;
5414;SDS011;2730;51.512;7.504;2023-02-15T07:57:52;38.75;;;16.23;;
5414;SDS011;2730;51.512;7.504;2023-02-15T08:00:20;40.35;;;16.55;;
5414;SDS011;2730;51.512;7.504;2023-02-15T08:02:49;46.70;;;16.48;;
5414;SDS011;2730;51.512;7.504;2023-02-15T08:05:37;37.88;;;15.95;;
5414;SDS011;2730;51.512;7.504;2023-02-15T08:08:05;44.90;;;16.35;;
5414;SDS011;2730;51.512;7.504;2023-02-15T08:10:32;32.08;;;15.05;;
5414;SDS011;2730;51.512;7.504;2023-02-15T08:13:18;46.95;;;17.83;;
5414;SDS011;2730;51.512;7.504;2023-02-15T08:15:47;35.35;;;15.00;;
5414;SDS011;2730;51.512;7.504;2023-02-15T08:18:14;38.22;;;15.73;;
5414;SDS011;2730;51.512;7.504;2023-02-15T08:20:41;35.28;;;13.77;;
5414;SDS011;2730;51.512;7.504;2023-02-15T08:23:08;34.08;;;14.50;;
5414;SDS011;2730;51.512;7.504;2023-02-15T08:25:35;40.97;;;13.95;;
5414;SDS011;2730;51.512;7.504;2023-02-15T08:28:02;34.05;;;14.02;;
5414;SDS011;2730;51.512;7.504;2023-02-15T08:30:30;31.40;;;14.55;;
5414;SDS011;2730;51.512;7.504;2023-02-15T08:32:57;28.45;;;14.02;;
5414;SDS011;2730;51.512;7.504;2023-02-15T08:35:24;29.02;;;14.88;;
5414;SDS011;2730;51.512;7.504;2023-02-15T08:37:51;27.50;;;12.40;;
5414;SDS011;2730;51.512;7.504;2023-02-15T08:40:17;31.20;;;14.82;;
5414;SDS011;2730;51.512;7.504;2023-02-15T08:42:44;34.58;;;13.70;;
5414;SDS011;2730;51.512;7.504;2023-02-15T08:45:11;28.92;;;12.55;;
5414;SDS011;2730;51.512;7.504;2023-02-15T08:47:39;33.10;;;13.68;;
5414;SDS011;2730;51.512;7.504;2023-02-15T08:50:06;30.50;;;13.00;;
5414;SDS011;2730;51.512;7.504;2023-02-15T08:52:33;30.60;;;12.10;;
5414;SDS011;2730;51.512;7.504;2023-02-15T08:55:00;28.60;;;12.82;;
5414;SDS011;2730;51.512;7.504;2023-02-15T08:57:27;28.33;;;11.45;;
5414;SDS011;2730;51.512;7.504;2023-02-15T08:59:54;27.65;;;11.88;;
5414;SDS011;2730;51.512;7.504;2023-02-15T09:02:21;37.90;;;12.77;;
5414;SDS011;2730;51.512;7.504;2023-02-15T09:04:49;25.17;;;11.07;;
5414;SDS011;2730;51.512;7.504;2023-02-15T09:07:16;31.00;;;12.45;;
5414;SDS011;2730;51.512;7.504;2023-02-15T09:09:43;22.58;;;12.13;;
5414;SDS011;2730;51.512;7.504;2023-02-15T09:12:11;30.23;;;12.27;;
5414;SDS011;2730;51.512;7.504;2023-02-15T09:14:38;24.27;;;11.10;;
5414;SDS011;2730;51.512;7.504;2023-02-15T09:17:05;29.67;;;12.10;;
5414;SDS011;2730;51.512;7.504;2023-02-15T09:19:31;25.25;;;10.35;;
5414;SDS011;2730;51.512;7.504;2023-02-15T09:22:00;26.67;;;11.05;;
5414;SDS011;2730;51.512;7.504;2023-02-15T09:24:26;24.17;;;10.80;;
5414;SDS011;2730;51.512;7.504;2023-02-15T09:26:53;25.02;;;11.70;;
5414;SDS011;2730;51.512;7.504;2023-02-15T09:29:20;30.33;;;12.15;;
5414;SDS011;2730;51.512;7.504;2023-02-15T09:31:48;24.88;;;11.27;;
5414;SDS011;2730;51.512;7.504;2023-02-15T09:34:17;22.23;;;10.85;;
5414;SDS011;2730;51.512;7.504;2023-02-15T09:36:45;21.33;;;10.97;;
5414;SDS011;2730;51.512;7.504;2023-02-15T09:39:15;22.50;;;11.33;;
5414;SDS011;2730;51.512;7.504;2023-02-15T09:44:46;26.40;;;11.83;;
5414;SDS011;2730;51.512;7.504;2023-02-15T09:47:48;20.07;;;11.20;;
5414;SDS011;2730;51.512;7.504;2023-02-15T09:50:39;26.63;;;13.17;;
5414;SDS011;2730;51.512;7.504;2023-02-15T09:56:10;19.00;;;10.27;;
5414;SDS011;2730;51.512;7.504;2023-02-15T09:58:46;21.80;;;10.43;;
5414;SDS011;2730;51.512;7.504;2023-02-15T10:01:25;25.40;;;11.27;;
5414;SDS011;2730;51.512;7.504;2023-02-15T10:04:05;19.40;;;10.60;;
5414;SDS011;2730;51.512;7.504;2023-02-15T10:06:55;24.10;;;11.37;;
5414;SDS011;2730;51.512;7.504;2023-02-15T10:09:34;30.13;;;11.80;;
5414;SDS011;2730;51.512;7.504;2023-02-15T10:15:09;24.30;;;11.07;;
5414;SDS011;2730;51.512;7.504;2023-02-15T10:17:54;20.23;;;10.80;;
5414;SDS011;2730;51.512;7.504;2023-02-15T10:20:38;18.83;;;11.17;;
5414;SDS011;2730;51.512;7.504;2023-02-15T10:26:16;18.37;;;10.67;;
5414;SDS011;2730;51.512;7.504;2023-02-15T10:28:48;21.73;;;9.43;;
5414;SDS011;2730;51.512;7.504;2023-02-15T10:31:22;18.60;;;10.00;;
5414;SDS011;2730;51.512;7.504;2023-02-15T10:33:53;21.83;;;12.20;;
5414;SDS011;2730;51.512;7.504;2023-02-15T10:36:33;15.40;;;9.70;;
5414;SDS011;2730;51.512;7.504;2023-02-15T10:39:16;20.93;;;9.80;;
5414;SDS011;2730;51.512;7.504;2023-02-15T10:41:53;18.60;;;10.50;;
5414;SDS011;2730;51.512;7.504;2023-02-15T10:44:32;23.27;;;10.90;;
5414;SDS011;2730;51.512;7.504;2023-02-15T10:47:12;21.17;;;11.00;;
5414;SDS011;2730;51.512;7.504;2023-02-15T10:50:06;17.83;;;9.47;;
5414;SDS011;2730;51.512;7.504;2023-02-15T10:52:50;18.37;;;9.67;;
5414;SDS011;2730;51.512;7.504;2023-02-15T10:55:26;21.30;;;9.80;;
5414;SDS011;2730;51.512;7.504;2023-02-15T10:58:04;16.73;;;9.00;;
5414;SDS011;2730;51.512;7.504;2023-02-15T11:00:40;19.67;;;9.00;;
5414;SDS011;2730;51.512;7.504;2023-02-15T11:03:16;18.70;;;9.47;;
5414;SDS011;2730;51.512;7.504;2023-02-15T11:05:56;17.23;;;8.07;;
5414;SDS011;2730;51.512;7.504;2023-02-15T11:08:29;15.50;;;8.13;;
5414;SDS011;2730;51.512;7.504;2023-02-15T11:11:00;16.23;;;8.53;;
5414;SDS011;2730;51.512;7.504;2023-02-15T11:13:31;16.37;;;8.60;;
5414;SDS011;2730;51.512;7.504;2023-02-15T11:16:02;18.17;;;8.70;;
5414;SDS011;2730;51.512;7.504;2023-02-15T11:18:33;16.50;;;8.03;;
5414;SDS011;2730;51.512;7.504;2023-02-15T11:21:03;17.00;;;8.20;;
5414;SDS011;2730;51.512;7.504;2023-02-15T11:23:37;18.83;;;9.57;;
5414;SDS011;2730;51.512;7.504;2023-02-15T11:26:11;18.70;;;8.30;;
5414;SDS011;2730;51.512;7.504;2023-02-15T11:28:42;25.10;;;7.37;;
5414;SDS011;2730;51.512;7.504;2023-02-15T11:31:16;14.63;;;7.80;;
5414;SDS011;2730;51.512;7.504;2023-02-15T11:33:46;16.50;;;7.55;;
5414;SDS011;2730;51.512;7.504;2023-02-15T11:36:18;13.70;;;7.47;;
5414;SDS011;2730;51.512;7.504;2023-02-15T11:38:47;19.42;;;8.60;;
5414;SDS011;2730;51.512;7.504;2023-02-15T11:41:21;13.00;;;7.60;;
5414;SDS011;2730;51.512;7.504;2023-02-15T11:43:53;13.57;;;7.07;;
5414;SDS011;2730;51.512;7.504;2023-02-15T11:46:24;17.45;;;7.90;;
5414;SDS011;2730;51.512;7.504;2023-02-15T11:48:51;16.50;;;7.13;;
5414;SDS011;2730;51.512;7.504;2023-02-15T11:51:18;14.13;;;7.82;;
5414;SDS011;2730;51.512;7.504;2023-02-15T11:53:48;17.63;;;8.60;;
5414;SDS011;2730;51.512;7.504;2023-02-15T11:56:16;13.95;;;7.13;;
5414;SDS011;2730;51.512;7.504;2023-02-15T11:58:44;21.42;;;8.00;;
5414;SDS011;2730;51.512;7.504;2023-02-15T12:01:16;18.65;;;8.00;;
5414;SDS011;2730;51.512;7.504;2023-02-15T12:03:47;12.75;;;7.13;;
5414;SDS011;2730;51.512;7.504;2023-02-15T12:06:21;16.07;;;7.17;;
5414;SDS011;2730;51.512;7.504;2023-02-15T12:08:52;15.63;;;7.70;;
5414;SDS011;2730;51.512;7.504;2023-02-15T12:11:26;12.55;;;6.53;;
5414;SDS011;2730;51.512;7.504;2023-02-15T12:13:59;10.88;;;6.30;;
5414;SDS011;2730;51.512;7.504;2023-02-15T12:16:31;13.00;;;7.22;;
5414;SDS011;2730;51.512;7.504;2023-02-15T12:19:11;11.35;;;6.20;;
5414;SDS011;2730;51.512;7.504;2023-02-15T12:21:50;10.30;;;6.20;;
5414;SDS011;2730;51.512;7.504;2023-02-15T12:24:19;10.82;;;6.65;;
5414;SDS011;2730;51.512;7.504;2023-02-15T12:26:55;14.68;;;6.95;;
5414;SDS011;2730;51.512;7.504;2023-02-15T12:29:24;8.65;;;5.78;;
5414;SDS011;2730;51.512;7.504;2023-02-15T12:31:53;12.65;;;5.95;;
5414;SDS011;2730;51.512;7.504;2023-02-15T12:34:23;12.75;;;5.38;;
5414;SDS011;2730;51.512;7.504;2023-02-15T12:36:53;27.33;;;6.60;;
5414;SDS011;2730;51.512;7.504;2023-02-15T12:39:23;11.93;;;5.80;;
5414;SDS011;2730;51.512;7.504;2023-02-15T12:41:59;14.13;;;6.32;;
5414;SDS011;2730;51.512;7.504;2023-02-15T12:44:29;10.07;;;5.68;;
5414;SDS011;2730;51.512;7.504;2023-02-15T12:46:58;14.13;;;5.85;;
5414;SDS011;2730;51.512;7.504;2023-02-15T12:49:28;11.40;;;5.70;;
5414;SDS011;2730;51.512;7.504;2023-02-15T12:51:57;8.43;;;5.25;;
5414;SDS011;2730;51.512;7.504;2023-02-15T12:54:30;12.93;;;6.60;;
5414;SDS011;2730;51.512;7.504;2023-02-15T12:57:18;9.88;;;5.47;;
5414;SDS011;2730;51.512;7.504;2023-02-15T12:59:50;9.23;;;5.30;;
5414;SDS011;2730;51.512;7.504;2023-02-15T13:02:20;10.63;;;6.05;;
5414;SDS011;2730;51.512;7.504;2023-02-15T13:04:52;15.88;;;6.03;;
5414;SDS011;2730;51.512;7.504;2023-02-15T13:07:19;9.52;;;5.95;;
5414;SDS011;2730;51.512;7.504;2023-02-15T13:09:47;12.43;;;6.88;;
5414;SDS011;2730;51.512;7.504;2023-02-15T13:12:16;10.38;;;5.85;;
5414;SDS011;2730;51.512;7.504;2023-02-15T13:14:46;11.10;;;5.65;;
5414;SDS011;2730;51.512;7.504;2023-02-15T13:17:16;13.20;;;5.90;;
5414;SDS011;2730;51.512;7.504;2023-02-15T13:19:46;11.00;;;5.80;;
5414;SDS011;2730;51.512;7.504;2023-02-15T13:22:18;11.75;;;6.05;;
5414;SDS011;2730;51.512;7.504;2023-02-15T13:24:48;13.48;;;5.50;;
5414;SDS011;2730;51.512;7.504;2023-02-15T13:27:20;10.90;;;5.55;;
5414;SDS011;2730;51.512;7.504;2023-02-15T13:29:51;12.05;;;6.53;;
5414;SDS011;2730;51.512;7.504;2023-02-15T13:32:25;14.68;;;6.88;;
5414;SDS011;2730;51.512;7.504;2023-02-15T13:34:56;10.07;;;6.50;;
5414;SDS011;2730;51.512;7.504;2023-02-15T13:37:34;11.70;;;5.72;;
5414;SDS011;2730;51.512;7.504;2023-02-15T13:40:12;11.87;;;6.13;;
5414;SDS011;2730;51.512;7.504;2023-02-15T13:42:42;13.35;;;6.70;;
5414;SDS011;2730;51.512;7.504;2023-02-15T13:45:21;9.80;;;6.32;;
5414;SDS011;2730;51.512;7.504;2023-02-15T13:48:01;11.27;;;5.78;;
5414;SDS011;2730;51.512;7.504;2023-02-15T13:50:39;9.47;;;5.53;;
5414;SDS011;2730;51.512;7.504;2023-02-15T13:53:40;15.77;;;8.37;;
5414;SDS011;2730;51.512;7.504;2023-02-15T13:56:19;19.20;;;6.20;;
5414;SDS011;2730;51.512;7.504;2023-02-15T14:02:14;11.35;;;6.68;;
5414;SDS011;2730;51.512;7.504;2023-02-15T14:05:11;16.83;;;7.70;;
5414;SDS011;2730;51.512;7.504;2023-02-15T14:07:56;11.43;;;6.60;;
5414;SDS011;2730;51.512;7.504;2023-02-15T14:10:38;9.20;;;6.15;;
5414;SDS011;2730;51.512;7.504;2023-02-15T14:13:17;10.47;;;5.93;;
5414;SDS011;2730;51.512;7.504;2023-02-15T14:15:55;17.60;;;8.38;;
5414;SDS011;2730;51.512;7.504;2023-02-15T14:18:30;14.57;;;6.65;;
5414;SDS011;2730;51.512;7.504;2023-02-15T14:21:06;16.37;;;7.23;;
5414;SDS011;2730;51.512;7.504;2023-02-15T14:23:42;20.10;;;8.18;;
5414;SDS011;2730;51.512;7.504;2023-02-15T14:26:21;20.30;;;7.97;;
5414;SDS011;2730;51.512;7.504;2023-02-15T14:28:54;19.80;;;7.72;;
5414;SDS011;2730;51.512;7.504;2023-02-15T14:31:34;14.63;;;7.40;;
5414;SDS011;2730;51.512;7.504;2023-02-15T14:34:08;13.85;;;6.32;;
5414;SDS011;2730;51.512;7.504;2023-02-15T14:36:45;15.93;;;6.80;;
5414;SDS011;2730;51.512;7.504;2023-02-15T14:39:16;19.48;;;6.88;;
5414;SDS011;2730;51.512;7.504;2023-02-15T14:42:11;16.48;;;6.20;;
5414;SDS011;2730;51.512;7.504;2023-02-15T14:44:45;16.40;;;7.73;;
5414;SDS011;2730;51.512;7.504;2023-02-15T14:47:20;21.38;;;8.40;;
5414;SDS011;2730;51.512;7.504;2023-02-15T14:49:52;17.00;;;6.95;;
5414;SDS011;2730;51.512;7.504;2023-02-15T14:52:19;18.02;;;7.10;;
5414;SDS011;2730;51.512;7.504;2023-02-15T14:54:53;11.38;;;6.95;;
5414;SDS011;2730;51.512;7.504;2023-02-15T14:57:24;19.98;;;7.78;;
5414;SDS011;2730;51.512;7.504;2023-02-15T14:59:57;12.02;;;7.55;;
5414;SDS011;2730;51.512;7.504;2023-02-15T15:02:26;13.70;;;8.20;;
5414;SDS011;2730;51.512;7.504;2023-02-15T15:04:58;15.70;;;6.93;;
5414;SDS011;2730;51.512;7.504;2023-02-15T15:07:35;22.50;;;8.98;;
5414;SDS011;2730;51.512;7.504;2023-02-15T15:10:05;14.77;;;6.90;;
5414;SDS011;2730;51.512;7.504;2023-02-15T15:12:54;17.02;;;7.80;;
5414;SDS011;2730;51.512;7.504;2023-02-15T15:15:33;14.35;;;6.80;;
5414;SDS011;2730;51.512;7.504;2023-02-15T15:18:03;18.00;;;6.47;;
5414;SDS011;2730;51.512;7.504;2023-02-15T15:20:41;19.35;;;8.35;;
5414;SDS011;2730;51.512;7.504;2023-02-15T15:26:20;19.05;;;7.45;;
5414;SDS011;2730;51.512;7.504;2023-02-15T15:28:57;15.52;;;7.63;;
5414;SDS011;2730;51.512;7.504;2023-02-15T15:31:30;14.57;;;7.40;;
5414;SDS011;2730;51.512;7.504;2023-02-15T15:34:14;16.88;;;6.88;;
5414;SDS011;2730;51.512;7.504;2023-02-15T15:40:20;15.98;;;7.97;;
5414;SDS011;2730;51.512;7.504;2023-02-15T15:49:08;15.88;;;6.95;;
5414;SDS011;2730;51.512;7.504;2023-02-15T15:51:39;18.85;;;7.25;;
5414;SDS011;2730;51.512;7.504;2023-02-15T15:54:11;18.00;;;8.88;;
5414;SDS011;2730;51.512;7.504;2023-02-15T15:56:42;18.48;;;8.63;;